sensor_id;sensor_type;location;lat;lon;timestamp;P1;durP1;ratioP1;P2;durP2;ratioP2
62463;SDS011;48512;48.552;9.380;2023-05-13T00:01:42;4.57;;;3.63;;
62463;SDS011;48512;48.552;9.380;2023-05-13T00:04:08;4.38;;;3.55;;
62463;SDS011;48512;48.552;9.380;2023-05-13T00:06:34;4.20;;;3.40;;
62463;SDS011;48512;48.552;9.380;2023-05-13T00:09:01;4.25;;;3.42;;
62463;SDS011;48512;48.552;9.380;2023-05-13T00:11:27;6.25;;;3.60;;
62463;SDS011;48512;48.552;9.380;2023-05-13T00:13:53;4.90;;;3.97;;
62463;SDS011;48512;48.552;9.380;2023-05-13T00:16:20;4.32;;;3.70;;
62463;SDS011;48512;48.552;9.380;2023-05-13T00:18:48;5.40;;;3.97;;
62463;SDS011;48512;48.552;9.380;2023-05-13T00:21:15;4.03;;;3.63;;
62463;SDS011;48512;48.552;9.380;2023-05-13T00:23:42;7.07;;;3.75;;
62463;SDS011;48512;48.552;9.380;2023-05-13T00:26:08;4.78;;;4.20;;
62463;SDS011;48512;48.552;9.380;2023-05-13T00:28:34;5.32;;;3.70;;
62463;SDS011;48512;48.552;9.380;2023-05-13T00:31:00;4.75;;;3.85;;
62463;SDS011;48512;48.552;9.380;2023-05-13T00:33:27;4.13;;;3.72;;
62463;SDS011;48512;48.552;9.380;2023-05-13T00:35:53;4.38;;;3.83;;
62463;SDS011;48512;48.552;9.380;2023-05-13T00:38:19;4.10;;;3.28;;
62463;SDS011;48512;48.552;9.380;2023-05-13T00:40:45;4.00;;;3.60;;
62463;SDS011;48512;48.552;9.380;2023-05-13T00:43:12;4.32;;;3.70;;
62463;SDS011;48512;48.552;9.380;2023-05-13T00:45:38;7.32;;;3.67;;
62463;SDS011;48512;48.552;9.380;2023-05-13T00:48:04;6.15;;;4.32;;
62463;SDS011;48512;48.552;9.380;2023-05-13T00:50:32;7.50;;;4.00;;
62463;SDS011;48512;48.552;9.380;2023-05-13T00:52:58;5.80;;;4.43;;
62463;SDS011;48512;48.552;9.380;2023-05-13T00:55:26;7.32;;;4.25;;
62463;SDS011;48512;48.552;9.380;2023-05-13T00:57:52;6.60;;;5.05;;
62463;SDS011;48512;48.552;9.380;2023-05-13T01:00:19;6.28;;;4.82;;
62463;SDS011;48512;48.552;9.380;2023-05-13T01:05:53;8.00;;;4.40;;
62463;SDS011;48512;48.552;9.380;2023-05-13T01:11:28;5.65;;;4.68;;
62463;SDS011;48512;48.552;9.380;2023-05-13T01:14:07;7.45;;;4.70;;
62463;SDS011;48512;48.552;9.380;2023-05-13T01:16:52;7.72;;;5.07;;
62463;SDS011;48512;48.552;9.380;2023-05-13T01:22:09;6.13;;;4.22;;
62463;SDS011;48512;48.552;9.380;2023-05-13T01:24:35;5.38;;;4.25;;
62463;SDS011;48512;48.552;9.380;2023-05-13T01:27:03;5.30;;;4.40;;
62463;SDS011;48512;48.552;9.380;2023-05-13T01:29:29;5.90;;;4.35;;
62463;SDS011;48512;48.552;9.380;2023-05-13T01:31:56;5.40;;;4.28;;
62463;SDS011;48512;48.552;9.380;2023-05-13T01:34:23;5.80;;;4.40;;
62463;SDS011;48512;48.552;9.380;2023-05-13T01:36:51;6.38;;;4.57;;
62463;SDS011;48512;48.552;9.380;2023-05-13T01:39:19;5.63;;;4.40;;
62463;SDS011;48512;48.552;9.380;2023-05-13T01:41:47;6.80;;;4.88;;
62463;SDS011;48512;48.552;9.380;2023-05-13T01:44:13;5.82;;;4.57;;
62463;SDS011;48512;48.552;9.380;2023-05-13T01:46:41;5.63;;;4.60;;
62463;SDS011;48512;48.552;9.380;2023-05-13T01:49:08;5.38;;;4.20;;
62463;SDS011;48512;48.552;9.380;2023-05-13T01:51:35;6.70;;;4.65;;
62463;SDS011;48512;48.552;9.380;2023-05-13T01:54:03;6.10;;;4.45;;
62463;SDS011;48512;48.552;9.380;2023-05-13T01:56:30;5.45;;;4.05;;
62463;SDS011;48512;48.552;9.380;2023-05-13T01:58:56;4.90;;;4.40;;
62463;SDS011;48512;48.552;9.380;2023-05-13T02:01:22;6.13;;;4.70;;
62463;SDS011;48512;48.552;9.380;2023-05-13T02:03:48;5.93;;;4.35;;
62463;SDS011;48512;48.552;9.380;2023-05-13T02:06:14;5.88;;;4.50;;
62463;SDS011;48512;48.552;9.380;2023-05-13T02:08:41;5.78;;;4.70;;
62463;SDS011;48512;48.552;9.380;2023-05-13T02:11:07;4.78;;;3.90;;
62463;SDS011;48512;48.552;9.380;2023-05-13T02:13:34;5.53;;;4.20;;
62463;SDS011;48512;48.552;9.380;2023-05-13T02:16:00;6.40;;;4.53;;
62463;SDS011;48512;48.552;9.380;2023-05-13T02:18:26;6.30;;;4.75;;
62463;SDS011;48512;48.552;9.380;2023-05-13T02:20:52;6.75;;;4.55;;
62463;SDS011;48512;48.552;9.380;2023-05-13T02:23:18;5.65;;;4.40;;
62463;SDS011;48512;48.552;9.380;2023-05-13T02:25:44;7.03;;;4.70;;
62463;SDS011;48512;48.552;9.380;2023-05-13T02:28:10;7.43;;;5.53;;
62463;SDS011;48512;48.552;9.380;2023-05-13T02:30:36;8.00;;;5.75;;
62463;SDS011;48512;48.552;9.380;2023-05-13T02:33:03;8.73;;;5.72;;
62463;SDS011;48512;48.552;9.380;2023-05-13T02:35:29;8.32;;;6.30;;
62463;SDS011;48512;48.552;9.380;2023-05-13T02:37:56;10.63;;;6.95;;
62463;SDS011;48512;48.552;9.380;2023-05-13T02:40:23;11.63;;;6.60;;
62463;SDS011;48512;48.552;9.380;2023-05-13T02:42:49;11.93;;;7.05;;
62463;SDS011;48512;48.552;9.380;2023-05-13T02:45:21;12.75;;;6.07;;
62463;SDS011;48512;48.552;9.380;2023-05-13T02:47:51;10.55;;;6.68;;
62463;SDS011;48512;48.552;9.380;2023-05-13T02:50:17;9.73;;;6.82;;
62463;SDS011;48512;48.552;9.380;2023-05-13T02:52:44;9.13;;;7.07;;
62463;SDS011;48512;48.552;9.380;2023-05-13T02:55:10;8.02;;;6.47;;
62463;SDS011;48512;48.552;9.380;2023-05-13T02:57:36;10.07;;;6.90;;
62463;SDS011;48512;48.552;9.380;2023-05-13T03:00:03;9.50;;;7.25;;
62463;SDS011;48512;48.552;9.380;2023-05-13T03:02:31;9.32;;;6.40;;
62463;SDS011;48512;48.552;9.380;2023-05-13T03:04:57;10.75;;;6.15;;
62463;SDS011;48512;48.552;9.380;2023-05-13T03:07:23;9.70;;;7.00;;
62463;SDS011;48512;48.552;9.380;2023-05-13T03:09:50;11.55;;;6.80;;
62463;SDS011;48512;48.552;9.380;2023-05-13T03:12:16;10.48;;;6.55;;
62463;SDS011;48512;48.552;9.380;2023-05-13T03:14:42;8.05;;;6.50;;
62463;SDS011;48512;48.552;9.380;2023-05-13T03:17:09;9.82;;;6.25;;
62463;SDS011;48512;48.552;9.380;2023-05-13T03:19:36;8.23;;;6.45;;
62463;SDS011;48512;48.552;9.380;2023-05-13T03:22:03;12.57;;;6.63;;
62463;SDS011;48512;48.552;9.380;2023-05-13T03:24:31;8.82;;;7.00;;
62463;SDS011;48512;48.552;9.380;2023-05-13T03:26:58;7.88;;;6.35;;
62463;SDS011;48512;48.552;9.380;2023-05-13T03:29:24;9.35;;;6.90;;
62463;SDS011;48512;48.552;9.380;2023-05-13T03:31:52;9.93;;;6.93;;
62463;SDS011;48512;48.552;9.380;2023-05-13T03:34:19;11.70;;;7.07;;
62463;SDS011;48512;48.552;9.380;2023-05-13T03:36:45;8.18;;;6.55;;
62463;SDS011;48512;48.552;9.380;2023-05-13T03:39:12;9.15;;;6.45;;
62463;SDS011;48512;48.552;9.380;2023-05-13T03:41:38;8.50;;;6.10;;
62463;SDS011;48512;48.552;9.380;2023-05-13T03:44:04;8.40;;;6.25;;
62463;SDS011;48512;48.552;9.380;2023-05-13T03:46:31;11.07;;;7.13;;
62463;SDS011;48512;48.552;9.380;2023-05-13T03:48:58;9.57;;;6.90;;
62463;SDS011;48512;48.552;9.380;2023-05-13T03:51:27;9.88;;;6.93;;
62463;SDS011;48512;48.552;9.380;2023-05-13T03:53:53;10.10;;;6.18;;
62463;SDS011;48512;48.552;9.380;2023-05-13T03:56:20;8.18;;;6.60;;
62463;SDS011;48512;48.552;9.380;2023-05-13T03:58:46;10.57;;;6.18;;
62463;SDS011;48512;48.552;9.380;2023-05-13T04:01:12;8.32;;;5.47;;
62463;SDS011;48512;48.552;9.380;2023-05-13T04:03:38;15.57;;;8.35;;
62463;SDS011;48512;48.552;9.380;2023-05-13T04:06:06;12.43;;;7.40;;
62463;SDS011;48512;48.552;9.380;2023-05-13T04:08:32;8.88;;;6.50;;
62463;SDS011;48512;48.552;9.380;2023-05-13T04:10:59;8.77;;;5.85;;
62463;SDS011;48512;48.552;9.380;2023-05-13T04:13:25;8.27;;;6.05;;
62463;SDS011;48512;48.552;9.380;2023-05-13T04:15:51;7.13;;;5.35;;
62463;SDS011;48512;48.552;9.380;2023-05-13T04:18:19;7.53;;;5.63;;
62463;SDS011;48512;48.552;9.380;2023-05-13T04:20:45;8.18;;;5.72;;
62463;SDS011;48512;48.552;9.380;2023-05-13T04:23:11;9.90;;;5.47;;
62463;SDS011;48512;48.552;9.380;2023-05-13T04:25:39;9.35;;;6.05;;
62463;SDS011;48512;48.552;9.380;2023-05-13T04:28:05;10.55;;;5.93;;
62463;SDS011;48512;48.552;9.380;2023-05-13T04:30:38;7.85;;;6.43;;
62463;SDS011;48512;48.552;9.380;2023-05-13T04:33:05;9.05;;;6.25;;
62463;SDS011;48512;48.552;9.380;2023-05-13T04:35:32;6.72;;;5.65;;
62463;SDS011;48512;48.552;9.380;2023-05-13T04:38:00;11.95;;;6.03;;
62463;SDS011;48512;48.552;9.380;2023-05-13T04:40:28;9.60;;;5.60;;
62463;SDS011;48512;48.552;9.380;2023-05-13T04:42:56;7.90;;;6.07;;
62463;SDS011;48512;48.552;9.380;2023-05-13T04:45:30;8.10;;;5.65;;
62463;SDS011;48512;48.552;9.380;2023-05-13T04:47:56;8.98;;;5.70;;
62463;SDS011;48512;48.552;9.380;2023-05-13T04:50:23;7.70;;;5.65;;
62463;SDS011;48512;48.552;9.380;2023-05-13T04:52:51;10.00;;;6.03;;
62463;SDS011;48512;48.552;9.380;2023-05-13T04:55:19;7.38;;;5.65;;
62463;SDS011;48512;48.552;9.380;2023-05-13T04:57:47;6.35;;;5.47;;
62463;SDS011;48512;48.552;9.380;2023-05-13T05:00:14;11.00;;;7.25;;
62463;SDS011;48512;48.552;9.380;2023-05-13T05:02:41;9.27;;;7.10;;
62463;SDS011;48512;48.552;9.380;2023-05-13T05:05:08;9.05;;;6.60;;
62463;SDS011;48512;48.552;9.380;2023-05-13T05:07:34;8.95;;;6.18;;
62463;SDS011;48512;48.552;9.380;2023-05-13T05:10:08;9.07;;;6.30;;
62463;SDS011;48512;48.552;9.380;2023-05-13T05:12:37;9.98;;;6.55;;
62463;SDS011;48512;48.552;9.380;2023-05-13T05:15:04;9.35;;;6.47;;
62463;SDS011;48512;48.552;9.380;2023-05-13T05:17:32;8.48;;;6.63;;
62463;SDS011;48512;48.552;9.380;2023-05-13T05:20:00;9.00;;;6.88;;
62463;SDS011;48512;48.552;9.380;2023-05-13T05:22:27;10.48;;;6.50;;
62463;SDS011;48512;48.552;9.380;2023-05-13T05:24:53;9.32;;;6.38;;
62463;SDS011;48512;48.552;9.380;2023-05-13T05:27:19;8.70;;;6.95;;
62463;SDS011;48512;48.552;9.380;2023-05-13T05:29:45;8.63;;;6.43;;
62463;SDS011;48512;48.552;9.380;2023-05-13T05:32:11;8.93;;;6.20;;
62463;SDS011;48512;48.552;9.380;2023-05-13T05:34:38;8.65;;;7.20;;
62463;SDS011;48512;48.552;9.380;2023-05-13T05:37:04;8.40;;;6.28;;
62463;SDS011;48512;48.552;9.380;2023-05-13T05:39:32;8.00;;;6.22;;
62463;SDS011;48512;48.552;9.380;2023-05-13T05:42:00;9.10;;;6.38;;
62463;SDS011;48512;48.552;9.380;2023-05-13T05:44:26;9.55;;;6.68;;
62463;SDS011;48512;48.552;9.380;2023-05-13T05:46:52;10.98;;;6.90;;
62463;SDS011;48512;48.552;9.380;2023-05-13T05:49:19;9.65;;;6.47;;
62463;SDS011;48512;48.552;9.380;2023-05-13T05:51:45;8.95;;;5.97;;
62463;SDS011;48512;48.552;9.380;2023-05-13T05:54:11;11.15;;;6.10;;
62463;SDS011;48512;48.552;9.380;2023-05-13T05:56:38;10.40;;;5.43;;
62463;SDS011;48512;48.552;9.380;2023-05-13T05:59:04;11.30;;;6.38;;
62463;SDS011;48512;48.552;9.380;2023-05-13T06:01:30;10.52;;;5.85;;
62463;SDS011;48512;48.552;9.380;2023-05-13T06:03:59;7.85;;;5.88;;
62463;SDS011;48512;48.552;9.380;2023-05-13T06:06:25;8.70;;;5.82;;
62463;SDS011;48512;48.552;9.380;2023-05-13T06:08:51;8.98;;;6.63;;
62463;SDS011;48512;48.552;9.380;2023-05-13T06:11:17;8.77;;;5.93;;
62463;SDS011;48512;48.552;9.380;2023-05-13T06:13:43;9.82;;;6.25;;
62463;SDS011;48512;48.552;9.380;2023-05-13T06:16:10;9.07;;;5.82;;
62463;SDS011;48512;48.552;9.380;2023-05-13T06:18:37;7.40;;;5.97;;
62463;SDS011;48512;48.552;9.380;2023-05-13T06:21:03;8.27;;;6.13;;
62463;SDS011;48512;48.552;9.380;2023-05-13T06:23:29;8.52;;;5.65;;
62463;SDS011;48512;48.552;9.380;2023-05-13T06:25:55;9.73;;;6.22;;
62463;SDS011;48512;48.552;9.380;2023-05-13T06:28:23;8.15;;;6.05;;
62463;SDS011;48512;48.552;9.380;2023-05-13T06:30:50;7.82;;;6.40;;
62463;SDS011;48512;48.552;9.380;2023-05-13T06:33:16;8.15;;;6.00;;
62463;SDS011;48512;48.552;9.380;2023-05-13T06:35:42;8.00;;;6.32;;
62463;SDS011;48512;48.552;9.380;2023-05-13T06:38:13;8.70;;;6.35;;
62463;SDS011;48512;48.552;9.380;2023-05-13T06:40:43;9.63;;;6.65;;
62463;SDS011;48512;48.552;9.380;2023-05-13T06:43:10;9.18;;;7.05;;
62463;SDS011;48512;48.552;9.380;2023-05-13T06:45:42;9.15;;;6.07;;
62463;SDS011;48512;48.552;9.380;2023-05-13T06:48:09;9.10;;;6.07;;
62463;SDS011;48512;48.552;9.380;2023-05-13T06:50:36;10.07;;;6.90;;
62463;SDS011;48512;48.552;9.380;2023-05-13T06:53:02;11.35;;;6.30;;
62463;SDS011;48512;48.552;9.380;2023-05-13T06:55:28;12.98;;;6.72;;
62463;SDS011;48512;48.552;9.380;2023-05-13T06:57:55;8.75;;;6.38;;
62463;SDS011;48512;48.552;9.380;2023-05-13T07:00:21;12.73;;;6.85;;
62463;SDS011;48512;48.552;9.380;2023-05-13T07:02:47;8.88;;;6.28;;
62463;SDS011;48512;48.552;9.380;2023-05-13T07:05:13;9.30;;;6.95;;
62463;SDS011;48512;48.552;9.380;2023-05-13T07:07:40;11.52;;;6.93;;
62463;SDS011;48512;48.552;9.380;2023-05-13T07:10:08;9.50;;;6.55;;
62463;SDS011;48512;48.552;9.380;2023-05-13T07:12:34;9.18;;;7.10;;
62463;SDS011;48512;48.552;9.380;2023-05-13T07:15:00;8.20;;;6.35;;
62463;SDS011;48512;48.552;9.380;2023-05-13T07:17:27;10.65;;;6.85;;
62463;SDS011;48512;48.552;9.380;2023-05-13T07:19:53;8.52;;;6.60;;
62463;SDS011;48512;48.552;9.380;2023-05-13T07:22:19;8.07;;;5.97;;
62463;SDS011;48512;48.552;9.380;2023-05-13T07:24:45;7.82;;;6.05;;
62463;SDS011;48512;48.552;9.380;2023-05-13T07:27:11;10.30;;;6.72;;
62463;SDS011;48512;48.552;9.380;2023-05-13T07:29:37;12.75;;;6.40;;
62463;SDS011;48512;48.552;9.380;2023-05-13T07:32:04;8.95;;;6.25;;
62463;SDS011;48512;48.552;9.380;2023-05-13T07:34:30;12.07;;;6.10;;
62463;SDS011;48512;48.552;9.380;2023-05-13T07:36:57;11.05;;;6.88;;
62463;SDS011;48512;48.552;9.380;2023-05-13T07:39:23;10.07;;;6.15;;
62463;SDS011;48512;48.552;9.380;2023-05-13T07:41:50;7.15;;;5.78;;
62463;SDS011;48512;48.552;9.380;2023-05-13T07:44:16;10.05;;;6.63;;
62463;SDS011;48512;48.552;9.380;2023-05-13T07:46:42;10.70;;;6.93;;
62463;SDS011;48512;48.552;9.380;2023-05-13T07:49:09;12.45;;;7.25;;
62463;SDS011;48512;48.552;9.380;2023-05-13T07:51:35;13.05;;;7.75;;
62463;SDS011;48512;48.552;9.380;2023-05-13T07:54:01;11.98;;;7.60;;
62463;SDS011;48512;48.552;9.380;2023-05-13T07:56:27;11.80;;;7.88;;
62463;SDS011;48512;48.552;9.380;2023-05-13T07:58:54;10.82;;;7.18;;
62463;SDS011;48512;48.552;9.380;2023-05-13T08:01:21;10.50;;;6.70;;
62463;SDS011;48512;48.552;9.380;2023-05-13T08:03:47;11.80;;;7.25;;
62463;SDS011;48512;48.552;9.380;2023-05-13T08:06:13;10.82;;;6.95;;
62463;SDS011;48512;48.552;9.380;2023-05-13T08:08:39;11.43;;;7.57;;
62463;SDS011;48512;48.552;9.380;2023-05-13T08:11:05;13.88;;;7.68;;
62463;SDS011;48512;48.552;9.380;2023-05-13T08:13:31;14.43;;;7.88;;
62463;SDS011;48512;48.552;9.380;2023-05-13T08:16:01;11.68;;;7.18;;
62463;SDS011;48512;48.552;9.380;2023-05-13T08:18:28;9.57;;;6.90;;
62463;SDS011;48512;48.552;9.380;2023-05-13T08:20:54;12.10;;;6.75;;
62463;SDS011;48512;48.552;9.380;2023-05-13T08:23:20;9.98;;;6.57;;
62463;SDS011;48512;48.552;9.380;2023-05-13T08:25:46;11.27;;;7.07;;
62463;SDS011;48512;48.552;9.380;2023-05-13T08:28:13;12.52;;;6.70;;
62463;SDS011;48512;48.552;9.380;2023-05-13T08:30:39;8.68;;;6.30;;
62463;SDS011;48512;48.552;9.380;2023-05-13T08:33:09;11.45;;;7.28;;
62463;SDS011;48512;48.552;9.380;2023-05-13T08:35:36;12.65;;;6.93;;
62463;SDS011;48512;48.552;9.380;2023-05-13T08:38:02;14.32;;;7.05;;
62463;SDS011;48512;48.552;9.380;2023-05-13T08:40:30;9.77;;;6.95;;
62463;SDS011;48512;48.552;9.380;2023-05-13T08:42:59;11.48;;;7.28;;
62463;SDS011;48512;48.552;9.380;2023-05-13T08:45:30;11.70;;;7.55;;
62463;SDS011;48512;48.552;9.380;2023-05-13T08:48:01;11.07;;;7.13;;
62463;SDS011;48512;48.552;9.380;2023-05-13T08:50:28;10.88;;;6.78;;
62463;SDS011;48512;48.552;9.380;2023-05-13T08:52:54;11.05;;;7.03;;
62463;SDS011;48512;48.552;9.380;2023-05-13T08:55:23;11.88;;;7.20;;
62463;SDS011;48512;48.552;9.380;2023-05-13T08:57:50;12.10;;;7.68;;
62463;SDS011;48512;48.552;9.380;2023-05-13T09:00:16;11.65;;;7.35;;
62463;SDS011;48512;48.552;9.380;2023-05-13T09:02:43;11.32;;;7.13;;
62463;SDS011;48512;48.552;9.380;2023-05-13T09:05:09;10.85;;;7.50;;
62463;SDS011;48512;48.552;9.380;2023-05-13T09:07:36;11.07;;;7.15;;
62463;SDS011;48512;48.552;9.380;2023-05-13T09:10:04;11.38;;;7.88;;
62463;SDS011;48512;48.552;9.380;2023-05-13T09:15:09;12.23;;;7.97;;
62463;SDS011;48512;48.552;9.380;2023-05-13T09:17:44;10.55;;;7.35;;
62463;SDS011;48512;48.552;9.380;2023-05-13T09:20:14;10.95;;;7.60;;
62463;SDS011;48512;48.552;9.380;2023-05-13T09:25:12;15.55;;;8.68;;
62463;SDS011;48512;48.552;9.380;2023-05-13T09:27:41;12.05;;;7.93;;
62463;SDS011;48512;48.552;9.380;2023-05-13T09:32:36;20.48;;;10.20;;
62463;SDS011;48512;48.552;9.380;2023-05-13T09:35:15;16.55;;;9.57;;
62463;SDS011;48512;48.552;9.380;2023-05-13T09:37:43;12.30;;;7.90;;
62463;SDS011;48512;48.552;9.380;2023-05-13T09:40:14;19.23;;;8.85;;
62463;SDS011;48512;48.552;9.380;2023-05-13T09:42:45;18.38;;;10.48;;
62463;SDS011;48512;48.552;9.380;2023-05-13T09:45:12;17.92;;;9.05;;
62463;SDS011;48512;48.552;9.380;2023-05-13T09:47:40;14.77;;;9.07;;
62463;SDS011;48512;48.552;9.380;2023-05-13T09:50:07;13.65;;;8.05;;
62463;SDS011;48512;48.552;9.380;2023-05-13T09:52:36;9.73;;;7.20;;
62463;SDS011;48512;48.552;9.380;2023-05-13T09:55:06;12.00;;;7.00;;
62463;SDS011;48512;48.552;9.380;2023-05-13T09:57:34;9.90;;;6.88;;
62463;SDS011;48512;48.552;9.380;2023-05-13T10:00:00;9.05;;;6.57;;
62463;SDS011;48512;48.552;9.380;2023-05-13T10:02:37;8.70;;;6.50;;
62463;SDS011;48512;48.552;9.380;2023-05-13T10:05:03;8.32;;;6.90;;
62463;SDS011;48512;48.552;9.380;2023-05-13T10:07:30;8.95;;;6.55;;
62463;SDS011;48512;48.552;9.380;2023-05-13T10:10:02;8.25;;;6.63;;
62463;SDS011;48512;48.552;9.380;2023-05-13T10:12:31;8.52;;;6.43;;
62463;SDS011;48512;48.552;9.380;2023-05-13T10:15:01;8.55;;;7.07;;
62463;SDS011;48512;48.552;9.380;2023-05-13T10:17:30;9.35;;;6.05;;
62463;SDS011;48512;48.552;9.380;2023-05-13T10:19:57;13.20;;;8.70;;
62463;SDS011;48512;48.552;9.380;2023-05-13T10:22:28;10.55;;;8.10;;
62463;SDS011;48512;48.552;9.380;2023-05-13T10:24:56;12.98;;;9.27;;
62463;SDS011;48512;48.552;9.380;2023-05-13T10:27:25;16.67;;;9.55;;
62463;SDS011;48512;48.552;9.380;2023-05-13T10:29:56;16.50;;;12.82;;
62463;SDS011;48512;48.552;9.380;2023-05-13T10:32:24;20.27;;;18.05;;
62463;SDS011;48512;48.552;9.380;2023-05-13T10:35:11;24.02;;;21.52;;
62463;SDS011;48512;48.552;9.380;2023-05-13T10:43:27;7.75;;;6.88;;
62463;SDS011;48512;48.552;9.380;2023-05-13T10:45:57;7.57;;;5.88;;
62463;SDS011;48512;48.552;9.380;2023-05-13T10:48:25;11.45;;;5.85;;
62463;SDS011;48512;48.552;9.380;2023-05-13T10:50:55;11.90;;;9.25;;
62463;SDS011;48512;48.552;9.380;2023-05-13T10:53:34;12.00;;;10.57;;
62463;SDS011;48512;48.552;9.380;2023-05-13T10:56:02;9.50;;;8.30;;
62463;SDS011;48512;48.552;9.380;2023-05-13T10:58:33;9.10;;;8.18;;
62463;SDS011;48512;48.552;9.380;2023-05-13T11:01:15;9.65;;;7.55;;
62463;SDS011;48512;48.552;9.380;2023-05-13T11:03:55;11.07;;;6.55;;
62463;SDS011;48512;48.552;9.380;2023-05-13T11:06:27;9.63;;;5.75;;
62463;SDS011;48512;48.552;9.380;2023-05-13T11:08:54;7.85;;;5.50;;
62463;SDS011;48512;48.552;9.380;2023-05-13T11:13:54;6.70;;;5.00;;
62463;SDS011;48512;48.552;9.380;2023-05-13T11:16:27;5.15;;;4.30;;
62463;SDS011;48512;48.552;9.380;2023-05-13T11:18:53;5.25;;;4.40;;
62463;SDS011;48512;48.552;9.380;2023-05-13T11:21:33;7.40;;;6.28;;
62463;SDS011;48512;48.552;9.380;2023-05-13T11:24:02;30.55;;;21.42;;
62463;SDS011;48512;48.552;9.380;2023-05-13T11:26:48;7.00;;;5.88;;
62463;SDS011;48512;48.552;9.380;2023-05-13T11:29:25;6.45;;;5.43;;
62463;SDS011;48512;48.552;9.380;2023-05-13T11:31:52;9.05;;;5.85;;
62463;SDS011;48512;48.552;9.380;2023-05-13T11:34:23;16.88;;;8.32;;
62463;SDS011;48512;48.552;9.380;2023-05-13T11:36:55;7.15;;;5.35;;
62463;SDS011;48512;48.552;9.380;2023-05-13T11:39:34;7.85;;;6.13;;
62463;SDS011;48512;48.552;9.380;2023-05-13T11:42:01;6.15;;;5.07;;
62463;SDS011;48512;48.552;9.380;2023-05-13T11:44:32;5.95;;;4.80;;
62463;SDS011;48512;48.552;9.380;2023-05-13T11:47:03;8.00;;;5.50;;
62463;SDS011;48512;48.552;9.380;2023-05-13T11:54:40;7.85;;;5.25;;
62463;SDS011;48512;48.552;9.380;2023-05-13T12:02:35;6.30;;;5.15;;
62463;SDS011;48512;48.552;9.380;2023-05-13T12:05:03;6.22;;;4.68;;
62463;SDS011;48512;48.552;9.380;2023-05-13T12:07:34;5.15;;;4.40;;
62463;SDS011;48512;48.552;9.380;2023-05-13T12:10:01;6.63;;;5.22;;
62463;SDS011;48512;48.552;9.380;2023-05-13T12:12:30;7.18;;;5.22;;
62463;SDS011;48512;48.552;9.380;2023-05-13T12:15:01;6.45;;;5.07;;
62463;SDS011;48512;48.552;9.380;2023-05-13T12:17:29;6.75;;;5.22;;
62463;SDS011;48512;48.552;9.380;2023-05-13T12:28:43;7.20;;;4.85;;
62463;SDS011;48512;48.552;9.380;2023-05-13T12:41:22;25.48;;;14.57;;
62463;SDS011;48512;48.552;9.380;2023-05-13T12:43:57;8.82;;;5.65;;
62463;SDS011;48512;48.552;9.380;2023-05-13T12:46:23;7.90;;;5.20;;
62463;SDS011;48512;48.552;9.380;2023-05-13T12:48:56;6.90;;;5.40;;
62463;SDS011;48512;48.552;9.380;2023-05-13T12:51:24;7.22;;;5.53;;
62463;SDS011;48512;48.552;9.380;2023-05-13T12:53:51;7.47;;;5.60;;
62463;SDS011;48512;48.552;9.380;2023-05-13T12:56:19;7.05;;;5.47;;
62463;SDS011;48512;48.552;9.380;2023-05-13T12:58:47;5.85;;;4.60;;
62463;SDS011;48512;48.552;9.380;2023-05-13T13:01:15;6.70;;;5.28;;
62463;SDS011;48512;48.552;9.380;2023-05-13T13:03:42;10.00;;;5.45;;
62463;SDS011;48512;48.552;9.380;2023-05-13T13:06:08;7.10;;;5.85;;
62463;SDS011;48512;48.552;9.380;2023-05-13T13:08:35;10.13;;;6.57;;
62463;SDS011;48512;48.552;9.380;2023-05-13T13:11:02;14.35;;;7.25;;
62463;SDS011;48512;48.552;9.380;2023-05-13T13:13:29;9.07;;;6.60;;
62463;SDS011;48512;48.552;9.380;2023-05-13T13:15:56;18.88;;;8.48;;
62463;SDS011;48512;48.552;9.380;2023-05-13T13:18:23;41.30;;;12.60;;
62463;SDS011;48512;48.552;9.380;2023-05-13T13:20:50;115.72;;;27.88;;
62463;SDS011;48512;48.552;9.380;2023-05-13T13:23:17;73.50;;;20.92;;
62463;SDS011;48512;48.552;9.380;2023-05-13T13:25:44;25.38;;;10.02;;
62463;SDS011;48512;48.552;9.380;2023-05-13T13:28:10;25.67;;;9.93;;
62463;SDS011;48512;48.552;9.380;2023-05-13T13:30:39;32.05;;;12.02;;
62463;SDS011;48512;48.552;9.380;2023-05-13T13:33:11;58.45;;;14.93;;
62463;SDS011;48512;48.552;9.380;2023-05-13T13:35:45;39.28;;;13.20;;
62463;SDS011;48512;48.552;9.380;2023-05-13T13:38:14;21.25;;;10.13;;
62463;SDS011;48512;48.552;9.380;2023-05-13T13:40:40;15.98;;;8.60;;
62463;SDS011;48512;48.552;9.380;2023-05-13T13:43:10;14.40;;;8.63;;
62463;SDS011;48512;48.552;9.380;2023-05-13T13:45:36;11.07;;;8.40;;
62463;SDS011;48512;48.552;9.380;2023-05-13T13:48:02;9.20;;;7.10;;
62463;SDS011;48512;48.552;9.380;2023-05-13T13:50:29;8.70;;;6.65;;
62463;SDS011;48512;48.552;9.380;2023-05-13T13:52:55;9.48;;;6.40;;
62463;SDS011;48512;48.552;9.380;2023-05-13T13:55:21;9.73;;;7.00;;
62463;SDS011;48512;48.552;9.380;2023-05-13T13:57:48;7.32;;;6.30;;
62463;SDS011;48512;48.552;9.380;2023-05-13T14:00:15;10.40;;;7.07;;
62463;SDS011;48512;48.552;9.380;2023-05-13T14:02:42;8.82;;;6.65;;
62463;SDS011;48512;48.552;9.380;2023-05-13T14:05:09;9.32;;;7.00;;
62463;SDS011;48512;48.552;9.380;2023-05-13T14:07:36;8.50;;;6.55;;
62463;SDS011;48512;48.552;9.380;2023-05-13T14:10:05;9.15;;;6.45;;
62463;SDS011;48512;48.552;9.380;2023-05-13T14:15:00;7.63;;;6.03;;
62463;SDS011;48512;48.552;9.380;2023-05-13T14:17:26;8.43;;;6.50;;
62463;SDS011;48512;48.552;9.380;2023-05-13T14:19:52;11.35;;;6.28;;
62463;SDS011;48512;48.552;9.380;2023-05-13T14:22:20;7.22;;;5.70;;
62463;SDS011;48512;48.552;9.380;2023-05-13T14:24:49;8.40;;;5.85;;
62463;SDS011;48512;48.552;9.380;2023-05-13T14:27:16;9.23;;;6.80;;
62463;SDS011;48512;48.552;9.380;2023-05-13T14:29:44;9.55;;;6.85;;
62463;SDS011;48512;48.552;9.380;2023-05-13T14:32:11;9.27;;;5.88;;
62463;SDS011;48512;48.552;9.380;2023-05-13T14:34:37;8.07;;;6.18;;
62463;SDS011;48512;48.552;9.380;2023-05-13T14:37:04;14.70;;;10.00;;
62463;SDS011;48512;48.552;9.380;2023-05-13T14:39:30;7.93;;;5.90;;
62463;SDS011;48512;48.552;9.380;2023-05-13T14:41:56;9.10;;;6.10;;
62463;SDS011;48512;48.552;9.380;2023-05-13T14:44:22;9.18;;;5.75;;
62463;SDS011;48512;48.552;9.380;2023-05-13T14:46:49;7.70;;;5.60;;
62463;SDS011;48512;48.552;9.380;2023-05-13T14:49:15;12.70;;;7.72;;
62463;SDS011;48512;48.552;9.380;2023-05-13T14:51:41;9.85;;;6.90;;
62463;SDS011;48512;48.552;9.380;2023-05-13T14:54:08;9.05;;;6.40;;
62463;SDS011;48512;48.552;9.380;2023-05-13T14:56:34;8.60;;;6.78;;
62463;SDS011;48512;48.552;9.380;2023-05-13T14:59:01;13.48;;;7.55;;
62463;SDS011;48512;48.552;9.380;2023-05-13T15:01:27;8.75;;;6.32;;
62463;SDS011;48512;48.552;9.380;2023-05-13T15:03:53;8.68;;;6.80;;
62463;SDS011;48512;48.552;9.380;2023-05-13T15:06:19;8.95;;;6.20;;
62463;SDS011;48512;48.552;9.380;2023-05-13T15:08:45;27.90;;;15.77;;
62463;SDS011;48512;48.552;9.380;2023-05-13T15:11:12;29.33;;;19.27;;
62463;SDS011;48512;48.552;9.380;2023-05-13T15:13:38;25.30;;;16.42;;
62463;SDS011;48512;48.552;9.380;2023-05-13T15:16:13;10.07;;;6.97;;
62463;SDS011;48512;48.552;9.380;2023-05-13T15:18:39;7.43;;;5.45;;
62463;SDS011;48512;48.552;9.380;2023-05-13T15:21:05;7.03;;;5.10;;
62463;SDS011;48512;48.552;9.380;2023-05-13T15:23:32;8.60;;;4.50;;
62463;SDS011;48512;48.552;9.380;2023-05-13T15:25:58;5.68;;;4.85;;
62463;SDS011;48512;48.552;9.380;2023-05-13T15:28:24;7.20;;;5.78;;
62463;SDS011;48512;48.552;9.380;2023-05-13T15:30:50;9.48;;;6.25;;
62463;SDS011;48512;48.552;9.380;2023-05-13T15:33:16;7.00;;;5.25;;
62463;SDS011;48512;48.552;9.380;2023-05-13T15:35:42;7.20;;;5.30;;
62463;SDS011;48512;48.552;9.380;2023-05-13T15:38:09;11.15;;;7.05;;
62463;SDS011;48512;48.552;9.380;2023-05-13T15:40:36;17.80;;;9.05;;
62463;SDS011;48512;48.552;9.380;2023-05-13T15:43:03;18.80;;;10.50;;